sensor_id;sensor_type;location;lat;lon;timestamp;P1;durP1;ratioP1;P2;durP2;ratioP2
7199;SDS011;3641;49.082;8.200;2023-04-15T00:01:51;12.77;;;3.20;;
7199;SDS011;3641;49.082;8.200;2023-04-15T00:04:17;9.38;;;3.58;;
7199;SDS011;3641;49.082;8.200;2023-04-15T00:06:48;8.07;;;3.88;;
7199;SDS011;3641;49.082;8.200;2023-04-15T00:09:17;8.57;;;3.55;;
7199;SDS011;3641;49.082;8.200;2023-04-15T00:11:43;11.68;;;3.13;;
7199;SDS011;3641;49.082;8.200;2023-04-15T00:14:11;7.95;;;3.58;;
7199;SDS011;3641;49.082;8.200;2023-04-15T00:16:37;7.68;;;3.40;;
7199;SDS011;3641;49.082;8.200;2023-04-15T00:19:04;7.45;;;3.22;;
7199;SDS011;3641;49.082;8.200;2023-04-15T00:21:30;9.45;;;3.92;;
7199;SDS011;3641;49.082;8.200;2023-04-15T00:23:57;7.97;;;3.38;;
7199;SDS011;3641;49.082;8.200;2023-04-15T00:26:25;7.53;;;3.42;;
7199;SDS011;3641;49.082;8.200;2023-04-15T00:28:51;8.23;;;3.60;;
7199;SDS011;3641;49.082;8.200;2023-04-15T00:31:18;8.80;;;4.07;;
7199;SDS011;3641;49.082;8.200;2023-04-15T00:33:44;8.10;;;3.22;;
7199;SDS011;3641;49.082;8.200;2023-04-15T00:36:11;11.32;;;3.85;;
7199;SDS011;3641;49.082;8.200;2023-04-15T00:38:37;6.63;;;3.67;;
7199;SDS011;3641;49.082;8.200;2023-04-15T00:41:04;9.60;;;3.53;;
7199;SDS011;3641;49.082;8.200;2023-04-15T00:43:32;8.02;;;3.65;;
7199;SDS011;3641;49.082;8.200;2023-04-15T00:45:58;7.35;;;3.70;;
7199;SDS011;3641;49.082;8.200;2023-04-15T00:48:26;7.80;;;3.67;;
7199;SDS011;3641;49.082;8.200;2023-04-15T00:50:53;9.52;;;3.63;;
7199;SDS011;3641;49.082;8.200;2023-04-15T00:53:19;9.80;;;3.58;;
7199;SDS011;3641;49.082;8.200;2023-04-15T00:55:46;9.75;;;3.67;;
7199;SDS011;3641;49.082;8.200;2023-04-15T00:58:12;9.48;;;3.92;;
7199;SDS011;3641;49.082;8.200;2023-04-15T01:00:41;9.70;;;3.80;;
7199;SDS011;3641;49.082;8.200;2023-04-15T01:03:08;9.52;;;4.00;;
7199;SDS011;3641;49.082;8.200;2023-04-15T01:05:35;7.97;;;3.70;;
7199;SDS011;3641;49.082;8.200;2023-04-15T01:08:02;7.63;;;3.50;;
7199;SDS011;3641;49.082;8.200;2023-04-15T01:10:29;8.25;;;4.05;;
7199;SDS011;3641;49.082;8.200;2023-04-15T01:12:56;8.68;;;3.92;;
7199;SDS011;3641;49.082;8.200;2023-04-15T01:15:23;7.95;;;4.05;;
7199;SDS011;3641;49.082;8.200;2023-04-15T01:17:51;11.07;;;3.60;;
7199;SDS011;3641;49.082;8.200;2023-04-15T01:20:18;9.35;;;3.70;;
7199;SDS011;3641;49.082;8.200;2023-04-15T01:22:44;6.97;;;3.75;;
7199;SDS011;3641;49.082;8.200;2023-04-15T01:25:13;8.63;;;3.65;;
7199;SDS011;3641;49.082;8.200;2023-04-15T01:27:44;8.23;;;3.67;;
7199;SDS011;3641;49.082;8.200;2023-04-15T01:30:11;6.95;;;3.45;;
7199;SDS011;3641;49.082;8.200;2023-04-15T01:32:38;8.30;;;3.97;;
7199;SDS011;3641;49.082;8.200;2023-04-15T01:35:04;8.68;;;3.65;;
7199;SDS011;3641;49.082;8.200;2023-04-15T01:37:31;8.00;;;3.53;;
7199;SDS011;3641;49.082;8.200;2023-04-15T01:39:58;8.00;;;3.55;;
7199;SDS011;3641;49.082;8.200;2023-04-15T01:42:25;8.98;;;3.92;;
7199;SDS011;3641;49.082;8.200;2023-04-15T01:44:54;7.90;;;3.67;;
7199;SDS011;3641;49.082;8.200;2023-04-15T01:47:20;7.32;;;3.85;;
7199;SDS011;3641;49.082;8.200;2023-04-15T01:49:47;5.95;;;3.22;;
7199;SDS011;3641;49.082;8.200;2023-04-15T01:52:13;6.70;;;3.45;;
7199;SDS011;3641;49.082;8.200;2023-04-15T01:54:40;8.57;;;3.40;;
7199;SDS011;3641;49.082;8.200;2023-04-15T01:57:06;6.78;;;3.33;;
7199;SDS011;3641;49.082;8.200;2023-04-15T01:59:33;13.68;;;3.50;;
7199;SDS011;3641;49.082;8.200;2023-04-15T02:02:01;10.30;;;3.22;;
7199;SDS011;3641;49.082;8.200;2023-04-15T02:04:28;8.95;;;3.30;;
7199;SDS011;3641;49.082;8.200;2023-04-15T02:06:54;7.78;;;3.55;;
7199;SDS011;3641;49.082;8.200;2023-04-15T02:09:21;12.98;;;3.50;;
7199;SDS011;3641;49.082;8.200;2023-04-15T02:11:48;7.03;;;3.60;;
7199;SDS011;3641;49.082;8.200;2023-04-15T02:14:14;9.13;;;3.78;;
7199;SDS011;3641;49.082;8.200;2023-04-15T02:16:41;7.15;;;3.40;;
7199;SDS011;3641;49.082;8.200;2023-04-15T02:19:09;11.27;;;4.07;;
7199;SDS011;3641;49.082;8.200;2023-04-15T02:21:35;10.02;;;3.75;;
7199;SDS011;3641;49.082;8.200;2023-04-15T02:24:02;7.85;;;4.13;;
7199;SDS011;3641;49.082;8.200;2023-04-15T02:26:28;8.20;;;3.90;;
7199;SDS011;3641;49.082;8.200;2023-04-15T02:28:56;7.95;;;3.85;;
7199;SDS011;3641;49.082;8.200;2023-04-15T02:31:23;9.68;;;4.15;;
7199;SDS011;3641;49.082;8.200;2023-04-15T02:33:50;8.15;;;3.85;;
7199;SDS011;3641;49.082;8.200;2023-04-15T02:36:18;7.88;;;3.60;;
7199;SDS011;3641;49.082;8.200;2023-04-15T02:38:45;10.30;;;3.55;;
7199;SDS011;3641;49.082;8.200;2023-04-15T02:41:11;8.45;;;3.67;;
7199;SDS011;3641;49.082;8.200;2023-04-15T02:43:38;6.68;;;3.53;;
7199;SDS011;3641;49.082;8.200;2023-04-15T02:46:04;7.90;;;3.50;;
7199;SDS011;3641;49.082;8.200;2023-04-15T02:48:31;7.00;;;3.65;;
7199;SDS011;3641;49.082;8.200;2023-04-15T02:51:10;8.88;;;3.67;;
7199;SDS011;3641;49.082;8.200;2023-04-15T02:53:39;12.90;;;3.88;;
7199;SDS011;3641;49.082;8.200;2023-04-15T02:56:06;6.82;;;3.90;;
7199;SDS011;3641;49.082;8.200;2023-04-15T02:58:33;8.50;;;3.65;;
7199;SDS011;3641;49.082;8.200;2023-04-15T03:01:00;12.65;;;4.05;;
7199;SDS011;3641;49.082;8.200;2023-04-15T03:03:26;7.93;;;3.47;;
7199;SDS011;3641;49.082;8.200;2023-04-15T03:05:53;8.98;;;3.78;;
7199;SDS011;3641;49.082;8.200;2023-04-15T03:08:19;8.95;;;4.38;;
7199;SDS011;3641;49.082;8.200;2023-04-15T03:10:47;9.00;;;4.05;;
7199;SDS011;3641;49.082;8.200;2023-04-15T03:13:16;9.43;;;3.60;;
7199;SDS011;3641;49.082;8.200;2023-04-15T03:15:42;9.30;;;3.47;;
7199;SDS011;3641;49.082;8.200;2023-04-15T03:18:10;5.97;;;3.35;;
7199;SDS011;3641;49.082;8.200;2023-04-15T03:20:36;7.45;;;3.55;;
7199;SDS011;3641;49.082;8.200;2023-04-15T03:23:03;6.43;;;3.13;;
7199;SDS011;3641;49.082;8.200;2023-04-15T03:25:29;6.20;;;3.50;;
7199;SDS011;3641;49.082;8.200;2023-04-15T03:27:58;9.02;;;4.25;;
7199;SDS011;3641;49.082;8.200;2023-04-15T03:30:25;8.20;;;3.92;;
7199;SDS011;3641;49.082;8.200;2023-04-15T03:32:51;9.18;;;3.97;;
7199;SDS011;3641;49.082;8.200;2023-04-15T03:35:18;6.90;;;3.90;;
7199;SDS011;3641;49.082;8.200;2023-04-15T03:37:44;10.07;;;4.25;;
7199;SDS011;3641;49.082;8.200;2023-04-15T03:40:13;9.85;;;4.40;;
7199;SDS011;3641;49.082;8.200;2023-04-15T03:42:39;9.43;;;4.78;;
7199;SDS011;3641;49.082;8.200;2023-04-15T03:45:08;8.90;;;4.40;;
7199;SDS011;3641;49.082;8.200;2023-04-15T03:47:35;7.68;;;3.70;;
7199;SDS011;3641;49.082;8.200;2023-04-15T03:50:01;7.95;;;3.88;;
7199;SDS011;3641;49.082;8.200;2023-04-15T03:52:28;12.77;;;4.35;;
7199;SDS011;3641;49.082;8.200;2023-04-15T03:54:54;10.63;;;4.57;;
7199;SDS011;3641;49.082;8.200;2023-04-15T03:57:21;6.95;;;3.85;;
7199;SDS011;3641;49.082;8.200;2023-04-15T03:59:48;7.85;;;4.43;;
7199;SDS011;3641;49.082;8.200;2023-04-15T04:02:16;10.50;;;4.13;;
7199;SDS011;3641;49.082;8.200;2023-04-15T04:04:42;10.20;;;4.05;;
7199;SDS011;3641;49.082;8.200;2023-04-15T04:07:13;10.68;;;3.75;;
7199;SDS011;3641;49.082;8.200;2023-04-15T04:09:40;8.02;;;4.47;;
7199;SDS011;3641;49.082;8.200;2023-04-15T04:12:07;9.57;;;4.22;;
7199;SDS011;3641;49.082;8.200;2023-04-15T04:14:33;7.10;;;3.63;;
7199;SDS011;3641;49.082;8.200;2023-04-15T04:17:00;6.82;;;3.38;;
7199;SDS011;3641;49.082;8.200;2023-04-15T04:19:28;8.75;;;3.80;;
7199;SDS011;3641;49.082;8.200;2023-04-15T04:21:55;7.57;;;4.00;;
7199;SDS011;3641;49.082;8.200;2023-04-15T04:24:21;8.43;;;3.60;;
7199;SDS011;3641;49.082;8.200;2023-04-15T04:26:47;6.95;;;3.90;;
7199;SDS011;3641;49.082;8.200;2023-04-15T04:29:14;8.88;;;3.60;;
7199;SDS011;3641;49.082;8.200;2023-04-15T04:31:41;8.68;;;4.60;;
7199;SDS011;3641;49.082;8.200;2023-04-15T04:34:07;10.05;;;4.63;;
7199;SDS011;3641;49.082;8.200;2023-04-15T04:36:35;10.07;;;5.55;;
7199;SDS011;3641;49.082;8.200;2023-04-15T04:39:01;13.15;;;5.60;;
7199;SDS011;3641;49.082;8.200;2023-04-15T04:41:28;9.07;;;4.38;;
7199;SDS011;3641;49.082;8.200;2023-04-15T04:43:54;12.57;;;5.85;;
7199;SDS011;3641;49.082;8.200;2023-04-15T04:46:21;13.77;;;4.88;;
7199;SDS011;3641;49.082;8.200;2023-04-15T04:48:47;8.45;;;4.15;;
7199;SDS011;3641;49.082;8.200;2023-04-15T04:51:14;8.88;;;4.07;;
7199;SDS011;3641;49.082;8.200;2023-04-15T04:53:42;13.60;;;4.30;;
7199;SDS011;3641;49.082;8.200;2023-04-15T04:56:08;7.95;;;3.80;;
7199;SDS011;3641;49.082;8.200;2023-04-15T04:58:35;10.52;;;4.15;;
7199;SDS011;3641;49.082;8.200;2023-04-15T05:01:02;9.90;;;4.60;;
7199;SDS011;3641;49.082;8.200;2023-04-15T05:03:28;7.05;;;4.35;;
7199;SDS011;3641;49.082;8.200;2023-04-15T05:05:55;10.43;;;4.50;;
7199;SDS011;3641;49.082;8.200;2023-04-15T05:08:21;11.52;;;4.50;;
7199;SDS011;3641;49.082;8.200;2023-04-15T05:10:49;8.93;;;4.00;;
7199;SDS011;3641;49.082;8.200;2023-04-15T05:13:16;6.68;;;4.10;;
7199;SDS011;3641;49.082;8.200;2023-04-15T05:15:42;8.13;;;4.55;;
7199;SDS011;3641;49.082;8.200;2023-04-15T05:18:09;10.38;;;4.82;;
7199;SDS011;3641;49.082;8.200;2023-04-15T05:20:35;8.80;;;4.30;;
7199;SDS011;3641;49.082;8.200;2023-04-15T05:23:02;9.80;;;4.93;;
7199;SDS011;3641;49.082;8.200;2023-04-15T05:25:28;7.47;;;4.47;;
7199;SDS011;3641;49.082;8.200;2023-04-15T05:27:57;8.38;;;4.57;;
7199;SDS011;3641;49.082;8.200;2023-04-15T05:30:23;11.05;;;5.15;;
7199;SDS011;3641;49.082;8.200;2023-04-15T05:32:50;7.97;;;4.32;;
7199;SDS011;3641;49.082;8.200;2023-04-15T05:35:16;7.90;;;4.53;;
7199;SDS011;3641;49.082;8.200;2023-04-15T05:37:43;6.80;;;3.97;;
7199;SDS011;3641;49.082;8.200;2023-04-15T05:40:09;7.55;;;3.92;;
7199;SDS011;3641;49.082;8.200;2023-04-15T05:42:36;10.18;;;4.10;;
7199;SDS011;3641;49.082;8.200;2023-04-15T05:45:05;9.43;;;3.90;;
7199;SDS011;3641;49.082;8.200;2023-04-15T05:47:33;9.02;;;4.30;;
7199;SDS011;3641;49.082;8.200;2023-04-15T05:50:00;13.77;;;4.72;;
7199;SDS011;3641;49.082;8.200;2023-04-15T05:52:27;11.43;;;4.75;;
7199;SDS011;3641;49.082;8.200;2023-04-15T05:54:53;11.80;;;4.65;;
7199;SDS011;3641;49.082;8.200;2023-04-15T05:57:20;12.20;;;4.80;;
7199;SDS011;3641;49.082;8.200;2023-04-15T05:59:47;9.75;;;4.70;;
7199;SDS011;3641;49.082;8.200;2023-04-15T06:02:16;12.52;;;4.80;;
7199;SDS011;3641;49.082;8.200;2023-04-15T06:04:43;9.05;;;4.70;;
7199;SDS011;3641;49.082;8.200;2023-04-15T06:07:09;9.88;;;4.90;;
7199;SDS011;3641;49.082;8.200;2023-04-15T06:09:36;12.73;;;4.95;;
7199;SDS011;3641;49.082;8.200;2023-04-15T06:12:02;12.20;;;5.25;;
7199;SDS011;3641;49.082;8.200;2023-04-15T06:14:30;10.40;;;4.55;;
7199;SDS011;3641;49.082;8.200;2023-04-15T06:16:57;11.20;;;5.45;;
7199;SDS011;3641;49.082;8.200;2023-04-15T06:19:24;12.70;;;6.15;;
7199;SDS011;3641;49.082;8.200;2023-04-15T06:21:51;12.13;;;6.25;;
7199;SDS011;3641;49.082;8.200;2023-04-15T06:24:17;12.98;;;6.88;;
7199;SDS011;3641;49.082;8.200;2023-04-15T06:26:44;14.32;;;6.13;;
7199;SDS011;3641;49.082;8.200;2023-04-15T06:29:10;11.07;;;6.20;;
7199;SDS011;3641;49.082;8.200;2023-04-15T06:31:37;12.52;;;6.30;;
7199;SDS011;3641;49.082;8.200;2023-04-15T06:34:03;14.32;;;6.72;;
7199;SDS011;3641;49.082;8.200;2023-04-15T06:36:31;12.82;;;6.20;;
7199;SDS011;3641;49.082;8.200;2023-04-15T06:38:58;12.15;;;6.10;;
7199;SDS011;3641;49.082;8.200;2023-04-15T06:41:25;11.55;;;5.50;;
7199;SDS011;3641;49.082;8.200;2023-04-15T06:43:51;10.05;;;5.60;;
7199;SDS011;3641;49.082;8.200;2023-04-15T06:46:18;13.25;;;5.30;;
7199;SDS011;3641;49.082;8.200;2023-04-15T06:48:44;14.27;;;5.30;;
7199;SDS011;3641;49.082;8.200;2023-04-15T06:51:11;11.15;;;5.22;;
7199;SDS011;3641;49.082;8.200;2023-04-15T06:53:39;11.02;;;6.43;;
7199;SDS011;3641;49.082;8.200;2023-04-15T06:56:07;12.27;;;5.85;;
7199;SDS011;3641;49.082;8.200;2023-04-15T06:58:34;11.55;;;5.80;;
7199;SDS011;3641;49.082;8.200;2023-04-15T07:01:01;13.70;;;5.63;;
7199;SDS011;3641;49.082;8.200;2023-04-15T07:03:28;10.38;;;5.25;;
7199;SDS011;3641;49.082;8.200;2023-04-15T07:05:54;12.40;;;5.57;;
7199;SDS011;3641;49.082;8.200;2023-04-15T07:08:21;14.82;;;6.70;;
7199;SDS011;3641;49.082;8.200;2023-04-15T07:10:49;12.38;;;6.35;;
7199;SDS011;3641;49.082;8.200;2023-04-15T07:13:16;14.30;;;6.28;;
7199;SDS011;3641;49.082;8.200;2023-04-15T07:15:42;13.70;;;6.10;;
7199;SDS011;3641;49.082;8.200;2023-04-15T07:18:09;13.70;;;6.68;;
7199;SDS011;3641;49.082;8.200;2023-04-15T07:20:36;12.77;;;6.95;;
7199;SDS011;3641;49.082;8.200;2023-04-15T07:23:02;13.00;;;6.88;;
7199;SDS011;3641;49.082;8.200;2023-04-15T07:25:29;15.95;;;7.13;;
7199;SDS011;3641;49.082;8.200;2023-04-15T07:27:56;14.43;;;6.70;;
7199;SDS011;3641;49.082;8.200;2023-04-15T07:30:23;14.77;;;7.18;;
7199;SDS011;3641;49.082;8.200;2023-04-15T07:32:49;15.60;;;8.10;;
7199;SDS011;3641;49.082;8.200;2023-04-15T07:35:16;11.77;;;7.22;;
7199;SDS011;3641;49.082;8.200;2023-04-15T07:37:45;13.73;;;7.35;;
7199;SDS011;3641;49.082;8.200;2023-04-15T07:40:11;14.00;;;7.57;;
7199;SDS011;3641;49.082;8.200;2023-04-15T07:42:38;15.70;;;7.75;;
7199;SDS011;3641;49.082;8.200;2023-04-15T07:45:07;15.85;;;8.10;;
7199;SDS011;3641;49.082;8.200;2023-04-15T07:47:34;16.30;;;8.15;;
7199;SDS011;3641;49.082;8.200;2023-04-15T07:50:00;14.80;;;7.78;;
7199;SDS011;3641;49.082;8.200;2023-04-15T07:52:27;15.85;;;7.75;;
7199;SDS011;3641;49.082;8.200;2023-04-15T07:54:53;13.95;;;7.40;;
7199;SDS011;3641;49.082;8.200;2023-04-15T07:57:20;13.75;;;7.78;;
7199;SDS011;3641;49.082;8.200;2023-04-15T07:59:46;15.00;;;7.88;;
7199;SDS011;3641;49.082;8.200;2023-04-15T08:02:14;12.90;;;7.82;;
7199;SDS011;3641;49.082;8.200;2023-04-15T08:04:40;17.25;;;8.20;;
7199;SDS011;3641;49.082;8.200;2023-04-15T08:07:07;18.38;;;8.10;;
7199;SDS011;3641;49.082;8.200;2023-04-15T08:09:33;14.52;;;7.68;;
7199;SDS011;3641;49.082;8.200;2023-04-15T08:12:00;15.68;;;8.75;;
7199;SDS011;3641;49.082;8.200;2023-04-15T08:14:26;14.85;;;8.20;;
7199;SDS011;3641;49.082;8.200;2023-04-15T08:16:52;14.98;;;7.80;;
7199;SDS011;3641;49.082;8.200;2023-04-15T08:19:20;17.45;;;7.72;;
7199;SDS011;3641;49.082;8.200;2023-04-15T08:21:48;15.80;;;7.93;;
7199;SDS011;3641;49.082;8.200;2023-04-15T08:24:15;16.90;;;7.55;;
7199;SDS011;3641;49.082;8.200;2023-04-15T08:26:41;15.15;;;7.30;;
7199;SDS011;3641;49.082;8.200;2023-04-15T08:29:08;12.18;;;7.43;;
7199;SDS011;3641;49.082;8.200;2023-04-15T08:31:34;13.00;;;7.07;;
7199;SDS011;3641;49.082;8.200;2023-04-15T08:34:00;21.33;;;7.88;;
7199;SDS011;3641;49.082;8.200;2023-04-15T08:36:29;17.92;;;7.50;;
7199;SDS011;3641;49.082;8.200;2023-04-15T08:38:56;16.35;;;7.88;;
7199;SDS011;3641;49.082;8.200;2023-04-15T08:41:24;13.43;;;7.63;;
7199;SDS011;3641;49.082;8.200;2023-04-15T08:43:52;12.38;;;7.57;;
7199;SDS011;3641;49.082;8.200;2023-04-15T08:46:19;13.55;;;7.47;;
7199;SDS011;3641;49.082;8.200;2023-04-15T08:48:46;14.38;;;7.20;;
7199;SDS011;3641;49.082;8.200;2023-04-15T08:51:14;19.77;;;7.50;;
7199;SDS011;3641;49.082;8.200;2023-04-15T08:53:43;14.10;;;7.15;;
7199;SDS011;3641;49.082;8.200;2023-04-15T08:56:11;14.80;;;7.35;;
7199;SDS011;3641;49.082;8.200;2023-04-15T08:58:39;14.25;;;7.47;;
7199;SDS011;3641;49.082;8.200;2023-04-15T09:01:06;16.77;;;6.68;;
7199;SDS011;3641;49.082;8.200;2023-04-15T09:03:32;12.07;;;6.88;;
7199;SDS011;3641;49.082;8.200;2023-04-15T09:05:59;15.48;;;6.85;;
7199;SDS011;3641;49.082;8.200;2023-04-15T09:08:26;15.30;;;6.90;;
7199;SDS011;3641;49.082;8.200;2023-04-15T09:10:54;12.93;;;6.38;;
7199;SDS011;3641;49.082;8.200;2023-04-15T09:13:20;11.98;;;6.68;;
7199;SDS011;3641;49.082;8.200;2023-04-15T09:15:47;13.77;;;6.38;;
7199;SDS011;3641;49.082;8.200;2023-04-15T09:18:19;12.32;;;5.85;;
7199;SDS011;3641;49.082;8.200;2023-04-15T09:20:53;12.23;;;6.03;;
7199;SDS011;3641;49.082;8.200;2023-04-15T09:23:19;13.82;;;6.32;;
7199;SDS011;3641;49.082;8.200;2023-04-15T09:25:46;12.02;;;5.90;;
7199;SDS011;3641;49.082;8.200;2023-04-15T09:28:22;11.35;;;5.60;;
7199;SDS011;3641;49.082;8.200;2023-04-15T09:30:50;19.05;;;5.70;;
7199;SDS011;3641;49.082;8.200;2023-04-15T09:33:17;28.45;;;6.63;;
7199;SDS011;3641;49.082;8.200;2023-04-15T09:35:47;16.70;;;5.68;;
7199;SDS011;3641;49.082;8.200;2023-04-15T09:38:22;14.02;;;6.38;;
7199;SDS011;3641;49.082;8.200;2023-04-15T09:40:48;12.45;;;5.72;;
7199;SDS011;3641;49.082;8.200;2023-04-15T09:43:16;13.18;;;5.90;;
7199;SDS011;3641;49.082;8.200;2023-04-15T09:45:46;10.32;;;5.93;;
7199;SDS011;3641;49.082;8.200;2023-04-15T09:48:14;8.93;;;5.50;;
7199;SDS011;3641;49.082;8.200;2023-04-15T09:50:42;11.13;;;5.40;;
7199;SDS011;3641;49.082;8.200;2023-04-15T09:53:09;11.77;;;5.72;;
7199;SDS011;3641;49.082;8.200;2023-04-15T09:55:36;10.43;;;5.47;;
7199;SDS011;3641;49.082;8.200;2023-04-15T09:58:07;13.57;;;6.50;;
7199;SDS011;3641;49.082;8.200;2023-04-15T10:00:35;14.00;;;7.20;;
7199;SDS011;3641;49.082;8.200;2023-04-15T10:03:04;14.55;;;6.43;;
7199;SDS011;3641;49.082;8.200;2023-04-15T10:05:31;12.73;;;6.43;;
7199;SDS011;3641;49.082;8.200;2023-04-15T10:07:59;12.38;;;5.78;;
7199;SDS011;3641;49.082;8.200;2023-04-15T10:10:26;13.52;;;5.22;;
7199;SDS011;3641;49.082;8.200;2023-04-15T10:12:53;11.93;;;5.70;;
7199;SDS011;3641;49.082;8.200;2023-04-15T10:15:21;16.85;;;6.78;;
7199;SDS011;3641;49.082;8.200;2023-04-15T10:17:50;14.43;;;6.40;;
7199;SDS011;3641;49.082;8.200;2023-04-15T10:20:19;13.15;;;5.70;;
7199;SDS011;3641;49.082;8.200;2023-04-15T10:22:48;13.40;;;7.05;;
7199;SDS011;3641;49.082;8.200;2023-04-15T10:25:16;8.82;;;5.50;;
7199;SDS011;3641;49.082;8.200;2023-04-15T10:27:44;11.38;;;5.25;;
7199;SDS011;3641;49.082;8.200;2023-04-15T10:30:12;10.60;;;5.00;;
7199;SDS011;3641;49.082;8.200;2023-04-15T10:32:40;12.98;;;5.63;;
7199;SDS011;3641;49.082;8.200;2023-04-15T10:35:09;9.98;;;5.63;;
7199;SDS011;3641;49.082;8.200;2023-04-15T10:37:36;10.73;;;5.50;;
7199;SDS011;3641;49.082;8.200;2023-04-15T10:42:59;10.57;;;4.78;;
7199;SDS011;3641;49.082;8.200;2023-04-15T10:45:26;14.57;;;6.10;;
7199;SDS011;3641;49.082;8.200;2023-04-15T10:47:57;10.07;;;5.25;;
7199;SDS011;3641;49.082;8.200;2023-04-15T10:50:27;7.40;;;4.72;;
7199;SDS011;3641;49.082;8.200;2023-04-15T10:52:56;8.15;;;4.82;;
7199;SDS011;3641;49.082;8.200;2023-04-15T10:55:24;7.65;;;3.45;;
7199;SDS011;3641;49.082;8.200;2023-04-15T10:57:52;7.90;;;3.08;;
7199;SDS011;3641;49.082;8.200;2023-04-15T11:00:20;7.10;;;3.17;;
7199;SDS011;3641;49.082;8.200;2023-04-15T11:02:51;9.75;;;3.05;;
7199;SDS011;3641;49.082;8.200;2023-04-15T11:05:19;5.10;;;2.40;;
7199;SDS011;3641;49.082;8.200;2023-04-15T11:07:49;8.65;;;3.22;;
7199;SDS011;3641;49.082;8.200;2023-04-15T11:13:25;6.63;;;3.25;;
7199;SDS011;3641;49.082;8.200;2023-04-15T11:15:59;10.75;;;3.22;;
7199;SDS011;3641;49.082;8.200;2023-04-15T11:18:31;10.82;;;2.95;;
7199;SDS011;3641;49.082;8.200;2023-04-15T11:20:59;9.50;;;3.40;;
7199;SDS011;3641;49.082;8.200;2023-04-15T11:23:30;10.73;;;3.88;;
7199;SDS011;3641;49.082;8.200;2023-04-15T11:26:01;8.10;;;3.90;;
7199;SDS011;3641;49.082;8.200;2023-04-15T11:28:30;9.75;;;3.30;;
7199;SDS011;3641;49.082;8.200;2023-04-15T11:30:57;6.28;;;2.85;;
7199;SDS011;3641;49.082;8.200;2023-04-15T11:33:24;7.05;;;2.90;;
7199;SDS011;3641;49.082;8.200;2023-04-15T11:35:51;8.05;;;2.90;;
7199;SDS011;3641;49.082;8.200;2023-04-15T11:38:18;7.88;;;3.20;;
7199;SDS011;3641;49.082;8.200;2023-04-15T11:40:46;6.78;;;3.50;;
7199;SDS011;3641;49.082;8.200;2023-04-15T11:43:14;6.88;;;3.05;;
7199;SDS011;3641;49.082;8.200;2023-04-15T11:45:49;7.43;;;3.50;;
7199;SDS011;3641;49.082;8.200;2023-04-15T11:48:17;10.25;;;3.55;;
7199;SDS011;3641;49.082;8.200;2023-04-15T11:50:51;7.03;;;3.38;;
7199;SDS011;3641;49.082;8.200;2023-04-15T11:53:19;8.77;;;3.95;;
7199;SDS011;3641;49.082;8.200;2023-04-15T11:55:48;6.80;;;2.97;;
7199;SDS011;3641;49.082;8.200;2023-04-15T11:58:15;7.78;;;3.13;;
7199;SDS011;3641;49.082;8.200;2023-04-15T12:00:47;6.70;;;2.72;;
7199;SDS011;3641;49.082;8.200;2023-04-15T12:03:17;9.05;;;3.00;;
7199;SDS011;3641;49.082;8.200;2023-04-15T12:08:59;6.07;;;2.70;;
7199;SDS011;3641;49.082;8.200;2023-04-15T12:11:30;8.52;;;3.38;;
7199;SDS011;3641;49.082;8.200;2023-04-15T12:14:03;11.07;;;3.58;;
7199;SDS011;3641;49.082;8.200;2023-04-15T12:16:34;8.70;;;3.78;;
7199;SDS011;3641;49.082;8.200;2023-04-15T12:19:04;8.18;;;3.30;;
7199;SDS011;3641;49.082;8.200;2023-04-15T12:21:33;11.75;;;3.45;;
7199;SDS011;3641;49.082;8.200;2023-04-15T12:24:01;9.23;;;3.50;;
7199;SDS011;3641;49.082;8.200;2023-04-15T12:26:28;11.10;;;3.00;;
7199;SDS011;3641;49.082;8.200;2023-04-15T12:29:01;7.47;;;2.72;;
7199;SDS011;3641;49.082;8.200;2023-04-15T12:31:29;7.88;;;2.67;;
7199;SDS011;3641;49.082;8.200;2023-04-15T12:33:56;8.10;;;3.63;;
7199;SDS011;3641;49.082;8.200;2023-04-15T12:36:24;9.68;;;3.88;;
7199;SDS011;3641;49.082;8.200;2023-04-15T12:38:51;10.88;;;5.30;;
7199;SDS011;3641;49.082;8.200;2023-04-15T12:41:18;9.15;;;4.25;;
7199;SDS011;3641;49.082;8.200;2023-04-15T12:43:46;6.80;;;4.00;;
7199;SDS011;3641;49.082;8.200;2023-04-15T12:46:13;10.57;;;3.78;;
7199;SDS011;3641;49.082;8.200;2023-04-15T12:48:40;7.88;;;3.58;;
7199;SDS011;3641;49.082;8.200;2023-04-15T12:51:07;7.18;;;3.65;;
7199;SDS011;3641;49.082;8.200;2023-04-15T12:53:33;8.95;;;4.60;;
7199;SDS011;3641;49.082;8.200;2023-04-15T12:56:01;9.65;;;4.00;;
7199;SDS011;3641;49.082;8.200;2023-04-15T12:58:27;5.90;;;3.08;;
7199;SDS011;3641;49.082;8.200;2023-04-15T13:00:55;9.02;;;3.50;;
7199;SDS011;3641;49.082;8.200;2023-04-15T13:03:22;8.70;;;3.63;;
7199;SDS011;3641;49.082;8.200;2023-04-15T13:05:48;8.23;;;3.50;;
7199;SDS011;3641;49.082;8.200;2023-04-15T13:08:15;6.65;;;3.63;;
7199;SDS011;3641;49.082;8.200;2023-04-15T13:10:41;8.23;;;4.00;;
7199;SDS011;3641;49.082;8.200;2023-04-15T13:13:08;8.27;;;3.88;;
7199;SDS011;3641;49.082;8.200;2023-04-15T13:15:35;7.80;;;3.15;;
7199;SDS011;3641;49.082;8.200;2023-04-15T13:18:03;6.25;;;2.92;;
7199;SDS011;3641;49.082;8.200;2023-04-15T13:20:31;6.00;;;2.72;;
7199;SDS011;3641;49.082;8.200;2023-04-15T13:22:58;8.25;;;3.78;;
7199;SDS011;3641;49.082;8.200;2023-04-15T13:25:24;8.15;;;3.63;;
7199;SDS011;3641;49.082;8.200;2023-04-15T13:27:51;7.93;;;3.88;;
7199;SDS011;3641;49.082;8.200;2023-04-15T13:30:18;8.52;;;4.05;;
7199;SDS011;3641;49.082;8.200;2023-04-15T13:32:44;8.52;;;4.00;;
7199;SDS011;3641;49.082;8.200;2023-04-15T13:35:12;8.75;;;4.85;;
7199;SDS011;3641;49.082;8.200;2023-04-15T13:37:39;6.43;;;4.20;;
7199;SDS011;3641;49.082;8.200;2023-04-15T13:40:06;8.55;;;3.92;;
7199;SDS011;3641;49.082;8.200;2023-04-15T13:42:33;8.80;;;4.78;;
7199;SDS011;3641;49.082;8.200;2023-04-15T13:45:00;9.82;;;4.78;;
7199;SDS011;3641;49.082;8.200;2023-04-15T13:47:26;10.43;;;4.85;;
7199;SDS011;3641;49.082;8.200;2023-04-15T13:49:53;10.32;;;4.90;;
7199;SDS011;3641;49.082;8.200;2023-04-15T13:52:22;9.18;;;4.07;;
7199;SDS011;3641;49.082;8.200;2023-04-15T13:54:48;8.77;;;4.65;;
7199;SDS011;3641;49.082;8.200;2023-04-15T13:57:15;8.18;;;4.35;;
7199;SDS011;3641;49.082;8.200;2023-04-15T13:59:42;10.27;;;4.78;;
7199;SDS011;3641;49.082;8.200;2023-04-15T14:02:09;10.45;;;4.82;;
7199;SDS011;3641;49.082;8.200;2023-04-15T14:04:35;8.88;;;4.45;;
7199;SDS011;3641;49.082;8.200;2023-04-15T14:07:02;9.23;;;4.20;;
7199;SDS011;3641;49.082;8.200;2023-04-15T14:09:30;8.02;;;3.95;;
7199;SDS011;3641;49.082;8.200;2023-04-15T14:11:56;9.43;;;3.88;;
7199;SDS011;3641;49.082;8.200;2023-04-15T14:14:25;9.40;;;3.80;;
7199;SDS011;3641;49.082;8.200;2023-04-15T14:16:51;8.98;;;4.43;;
7199;SDS011;3641;49.082;8.200;2023-04-15T14:19:18;8.30;;;4.03;;
7199;SDS011;3641;49.082;8.200;2023-04-15T14:21:44;9.20;;;3.60;;
7199;SDS011;3641;49.082;8.200;2023-04-15T14:24:11;9.20;;;3.75;;
7199;SDS011;3641;49.082;8.200;2023-04-15T14:26:38;6.90;;;3.30;;
7199;SDS011;3641;49.082;8.200;2023-04-15T14:29:05;7.93;;;3.38;;
7199;SDS011;3641;49.082;8.200;2023-04-15T14:31:31;5.03;;;3.15;;
7199;SDS011;3641;49.082;8.200;2023-04-15T14:33:58;5.35;;;2.97;;
7199;SDS011;3641;49.082;8.200;2023-04-15T14:36:24;10.52;;;3.10;;
7199;SDS011;3641;49.082;8.200;2023-04-15T14:38:51;9.55;;;2.72;;
7199;SDS011;3641;49.082;8.200;2023-04-15T14:41:18;7.68;;;2.58;;
7199;SDS011;3641;49.082;8.200;2023-04-15T14:43:46;8.85;;;2.85;;
7199;SDS011;3641;49.082;8.200;2023-04-15T14:46:12;7.03;;;2.67;;
7199;SDS011;3641;49.082;8.200;2023-04-15T14:48:39;5.00;;;2.15;;
7199;SDS011;3641;49.082;8.200;2023-04-15T14:51:05;6.53;;;2.00;;
7199;SDS011;3641;49.082;8.200;2023-04-15T14:53:32;3.45;;;1.70;;
7199;SDS011;3641;49.082;8.200;2023-04-15T14:55:58;6.03;;;2.30;;
7199;SDS011;3641;49.082;8.200;2023-04-15T14:58:25;5.53;;;1.92;;
7199;SDS011;3641;49.082;8.200;2023-04-15T15:00:53;7.22;;;2.03;;
7199;SDS011;3641;49.082;8.200;2023-04-15T15:03:19;6.18;;;2.85;;
7199;SDS011;3641;49.082;8.200;2023-04-15T15:05:46;6.28;;;2.10;;
7199;SDS011;3641;49.082;8.200;2023-04-15T15:08:12;4.82;;;2.13;;
7199;SDS011;3641;49.082;8.200;2023-04-15T15:10:39;3.67;;;1.60;;
7199;SDS011;3641;49.082;8.200;2023-04-15T15:13:07;6.68;;;1.65;;
7199;SDS011;3641;49.082;8.200;2023-04-15T15:15:35;5.47;;;1.25;;
7199;SDS011;3641;49.082;8.200;2023-04-15T15:18:04;2.30;;;1.20;;
7199;SDS011;3641;49.082;8.200;2023-04-15T15:20:31;4.40;;;1.20;;